The Next Winner in the Cash Churning Plant-Based Arena!
Plant-based eating has moved from a trend to a revolution and this company may be one of the most worthwhile stocks to be watching. It has already gained over 300% since its IPO last November!
Continue Reading
pixel

MCRI Insider Trading (Monarch Casino & Resort)

Insider Ownership Percentage: 26.75%
Insider Buying (Last 12 Months): $100,550.00
Insider Selling (Last 12 Months): $690,806.10

Monarch Casino & Resort Insider Trading History Chart

Monarch Casino & Resort Share Price & Price History

$63.09
▲ +0.79 (1.27%)
As of 03/8/2021 01:00 AM ET
Days: 30 | 90 | 365
World's 2nd Richest Man Is About To Shock The World
Elon Musk changed online payment processing with Paypal. He's changing space exploration with SpaceX and the auto industry with Tesla.

And now, Elon Musk is getting ready to unveil his next big project: S.A.V. It's so revolutionary; it could even put an extra $30,000 in Americans' pockets.
See what was caught on camera

Monarch Casino & Resort Insider Trading History

Transaction DateInsider NameTitleBuy/SellNumber of SharesAverage Share PriceTotal TransactionShares Held After TransactionDetails
5/27/2020Bob FarahiPresidentSell16,994$40.65$690,806.10154,423  
3/16/2020Bob FarahiPresidentBuy5,000$20.11$100,550.00398,265  
9/11/2019Bob FarahiPresidentSell24,340$45.08$1,097,247.20380,066  
9/7/2018Bob FarahiPresidentBuy8,000$44.84$358,720.00419,408  
See Full Table

SEC Filings (Institutional Ownership Changes) for Monarch Casino & Resort (NASDAQ:MCRI)

62.36% of Monarch Casino & Resort stock is owned by institutions. Institutional ownership can be a sign of analyst confidence in the fundamentals of the stock.

Institutional Buying and Selling by Quarter

Monarch Casino & Resort Institutional Trading History

Reporting DateHedge FundShares HeldMarket Value% of PortfolioQuarterly Change in SharesOwnership in Company
3/8/2021Dimensional Fund Advisors LP173,714$10.63M0.0%+0.8%0.951%
3/1/2021UBS Asset Management Americas Inc.9,664$0.59M0.0%+52.8%0.053%
2/25/2021Dimensional Fund Advisors LP173,714$10.63M0.0%+0.8%0.951%
2/23/2021Principal Financial Group Inc.87,943$5.38M0.0%-3.4%0.482%
2/19/2021JPMorgan Chase & Co.934,246$57.20M0.0%0.0%5.116%
2/16/2021Park West Asset Management LLC450,000$27.55M0.6%-50.7%2.464%
2/16/2021Nuveen Asset Management LLC50,417$3.09M0.0%+9.9%0.276%
2/16/2021BCJ Capital Management LLC5,200$0.32M0.0%+11.3%0.028%
2/16/2021Engineers Gate Manager LP6,113$0.37M0.0%N/A0.033%
2/16/2021Janus Henderson Group PLC878,668$53.79M0.0%+0.3%4.811%
2/16/2021Prelude Capital Management LLC4,050$0.25M0.0%-33.0%0.022%
2/16/2021Charles Schwab Investment Management Inc.84,019$5.14M0.0%+1.5%0.460%
2/13/2021Tompkins Financial Corp18,051$0.51M0.1%N/A0.099%
2/13/2021American International Group Inc.8,511$0.52M0.0%-2.4%0.047%
2/12/2021Epoch Investment Partners Inc.275,993$16.90M0.1%-10.8%1.511%
2/12/2021Vantage Consulting Group Inc472$29K0.0%N/A0.003%
2/12/2021The Manufacturers Life Insurance Company 7,707$0.47M0.0%+3.7%0.042%
2/12/2021Credit Suisse AG23,446$1.44M0.0%+27.5%0.128%
2/12/2021Alpha Paradigm Partners LLC12,646$0.77M0.3%N/A0.069%
2/11/2021Lazard Asset Management LLC467$28K0.0%N/A0.003%
2/11/2021Fuller & Thaler Asset Management Inc.40,680$2.49M0.0%-5.0%0.223%
2/11/2021Northern Trust Corp206,073$12.62M0.0%-2.6%1.128%
2/11/2021Barclays PLC14,111$0.86M0.0%-19.3%0.077%
2/11/2021Citigroup Inc.4,437$0.27M0.0%+354.1%0.024%
2/10/2021Rhumbline Advisers37,585$2.30M0.0%+8.4%0.206%
2/9/2021Wells Fargo & Company MN42,353$2.59M0.0%+57.0%0.232%
2/9/2021Bank of New York Mellon Corp129,931$7.95M0.0%-1.5%0.711%
2/9/2021Oregon Public Employees Retirement Fund5,006$0.31M0.0%+4.9%0.027%
2/9/2021Campbell & CO Investment Adviser LLC9,000$0.55M0.3%N/A0.049%
2/9/2021William Blair Investment Management LLC221,695$13.57M0.0%+26.2%1.214%
2/8/2021Alliancebernstein L.P.11,970$0.73M0.0%-33.0%0.066%
2/8/2021State Board of Administration of Florida Retirement System9,988$0.61M0.0%-17.6%0.055%
2/8/2021Russell Investments Group Ltd.4,797$0.29M0.0%-11.2%0.026%
2/6/2021Tompkins Financial Corp18,051$0.51M0.0%N/A0.099%
2/5/2021BlackRock Inc.1,955,575$119.72M0.0%+3.8%10.708%
2/5/2021Aperio Group LLC7,522$0.46M0.0%-3.1%0.041%
2/5/2021Brasada Capital Management LP154,473$9.46M2.2%+7.3%0.846%
2/5/2021Monarch Partners Asset Management LLC28,399$1.74M0.3%N/A0.156%
2/5/2021US Bancorp DE3,625$0.22M0.0%-5.0%0.020%
2/4/2021Texas Permanent School Fund10,265$0.63M0.0%-13.7%0.056%
2/2/2021Icon Advisers Inc. Co.91,800$5.62M1.0%+25.1%0.503%
2/1/2021Victory Capital Management Inc.3,535$0.22M0.0%N/A0.019%
1/29/2021Whittier Trust Co.66,033$4.04M0.1%+5.2%0.362%
1/29/2021Whittier Trust Co. of Nevada Inc.26,803$1.64M0.1%+10.0%0.147%
1/28/2021Arizona State Retirement System3,694$0.23M0.0%N/A0.020%
1/28/2021Cornerstone Investment Partners LLC3,422$0.21M0.0%N/A0.019%
1/25/2021Nisa Investment Advisors LLC860$53K0.0%N/A0.005%
1/25/2021AdvisorShares Investments LLC7,280$0.45M0.1%N/A0.040%
1/8/2021Wedge Capital Management L L P NC16,888$1.03M0.0%-42.3%0.092%
1/8/2021State of Alaska Department of Revenue9,945$0.61M0.0%-16.5%0.054%
11/27/2020Brasada Capital Management LP143,971$6.42M1.6%+1.7%0.788%
11/19/2020Jeppson Wealth Management LLC650$29K0.0%N/A0.004%
11/18/2020Great West Life Assurance Co. Can13,180$0.59M0.0%-8.8%0.072%
11/17/2020BCJ Capital Management LLC4,674$0.21M0.0%N/A0.026%
11/16/2020Cubist Systematic Strategies LLC4,834$0.22M0.0%N/A0.026%
11/13/2020Epoch Investment Partners Inc.309,468$13.80M0.1%-2.1%1.695%
11/13/2020Public Sector Pension Investment Board28,194$1.26M0.0%+5.6%0.154%
11/13/2020Morgan Stanley37,348$1.67M0.0%+0.6%0.205%
11/13/2020Charles Schwab Investment Management Inc.82,756$3.69M0.0%+1.6%0.453%
11/13/2020Great West Life Assurance Co. Can33,814$2.05M0.0%+134.1%0.185%
11/12/2020JPMorgan Chase & Co.934,534$41.23M0.0%-0.9%5.117%
11/12/2020Arrowstreet Capital Limited Partnership111,446$4.97M0.0%+4.8%0.610%
11/11/2020Thrivent Financial for Lutherans10,558$0.47M0.0%+5.2%0.058%
11/10/2020State Street Corp422,702$18.85M0.0%-2.7%2.324%
11/9/2020Shelton Capital Management74,254$3.31M0.1%N/A0.408%
11/9/2020Fuller & Thaler Asset Management Inc.42,830$1.91M0.0%-5.4%0.235%
11/9/2020The Manufacturers Life Insurance Company7,429$0.33M0.0%-4.7%0.041%
11/6/2020BlackRock Inc.1,884,578$84.05M0.0%+2.1%10.361%
11/6/2020Trexquant Investment LP5,536$0.25M0.0%-11.5%0.030%
11/6/2020Aperio Group LLC7,759$0.35M0.0%+4.1%0.043%
11/6/2020Principal Financial Group Inc.91,076$4.06M0.0%+1.7%0.501%
11/6/2020William Blair Investment Management LLC175,627$7.83M0.0%+37.9%0.966%
11/5/2020California Public Employees Retirement System26,200$1.17M0.0%-6.2%0.144%
11/5/2020First Trust Advisors LP6,165$0.28M0.0%-51.2%0.034%
11/5/2020Wells Fargo & Company MN26,973$1.20M0.0%-8.9%0.148%
11/5/2020Icon Advisers Inc. Co.73,400$3.27M0.6%+506.6%0.404%
10/30/2020BNP Paribas Arbitrage SA3,211$0.14M0.0%+333.3%0.018%
10/30/2020Whittier Trust Co.62,781$2.80M0.1%+2.1%0.345%
10/30/2020Whittier Trust Co. of Nevada Inc.24,361$1.09M0.1%+6.3%0.134%
10/30/2020Comerica Bank11,529$0.52M0.0%+5.7%0.063%
10/30/2020WINTON GROUP Ltd21,154$0.94M0.0%-79.4%0.116%
10/26/2020Morgan Dempsey Capital Management LLC1,616$72K0.0%-12.6%0.009%
10/19/2020Louisiana State Employees Retirement System5,900$0.26M0.0%N/A0.032%
10/16/2020Cadence Capital Management LLC9,987$0.45M0.1%-76.3%0.055%
10/15/2020DAVENPORT & Co LLC474,989$21.19M0.2%+0.3%2.611%
10/5/2020State of Alaska Department of Revenue11,907$0.53M0.0%+8.1%0.065%
9/15/2020Two Sigma Advisers LP55,800$1.90M0.0%+19.5%0.307%
9/4/2020Principal Financial Group Inc.89,578$3.05M0.0%-1.1%0.492%
8/25/2020Nuveen Asset Management LLC45,492$1.55M0.0%+7.4%0.250%
8/24/2020FMR LLC31,663$1.08M0.0%+4.0%0.174%
8/20/2020Charles Schwab Investment Management Inc.81,417$2.78M0.0%+7.9%0.448%
8/17/2020California State Teachers Retirement System19,020$0.65M0.0%+9.5%0.105%
8/17/2020Great West Life Assurance Co. Can14,446$0.49M0.0%+2.3%0.079%
8/14/2020Bank of America Corp DE10,550$0.36M0.0%-67.2%0.058%
8/14/2020Plaisance Capital LLC11,150$0.38M0.4%-82.5%0.061%
8/14/2020Vanguard Group Inc.846,556$28.85M0.0%+14.0%4.654%
8/14/2020Advisor Group Holdings Inc.2,737$93K0.0%+35.2%0.015%
8/13/2020Epoch Investment Partners Inc.316,033$10.77M0.1%-11.8%1.737%
8/13/2020Teton Advisors Inc.6,000$0.20M0.0%N/A0.033%
8/13/2020FMR LLC31,663$1.08M0.0%+4.0%0.174%
Data available starting January 2016

See Full Table
Monarch Casino & Resort logo
Monarch Casino & Resort, Inc., through its subsidiaries, owns and operates the Atlantis Casino Resort Spa, a hotel/casino facility in Reno, Nevada. It also owns and operates the Monarch Casino Black Hawk in Black Hawk, Colorado. As of March 11, 2020, the company's Atlantis Casino Resort Spa featured approximately 61,000 square feet of casino space; 818 guest rooms; 8 food outlets; 2 gourmet coffee and pastry bars; 1 snack bar; a 30,000 square-foot health spa and salon with an enclosed pool; 2 retail outlets offering clothing and gift shop merchandise; an 8,000 square-foot family entertainment center; and approximately 52,000 square feet of banquet, convention, and meeting room space. Its Atlantis Casino Resort Spa also featured approximately 1,450 slot and video poker machines; approximately 37 table games, including blackjack, craps, roulette, and others; a race and sports book; a 24-hour live keno lounge; and a poker room. In addition, the company's Monarch Casino Black Hawk featured approximately 30,000 square feet of casino space; approximately 740 slot machines; 14 table games; a 250-seat buffet-style restaurant; a snack bar; and a nine-story parking structure with approximately 1,350 spaces, as well as valet parking with a total parking capacity to 1,500 spaces. Monarch Casino & Resort, Inc. was founded in 1972 and is based in Reno, Nevada.
Read More

Today's Range

Now: $63.09
$62.19
$64.27

50 Day Range

MA: $59.14
$52.85
$68.06

52 Week Range

Now: $63.09
$12.83
$70.77

Volume

104,606 shs

Average Volume

116,827 shs

Market Capitalization

$1.15 billion

P/E Ratio

81.94

Dividend Yield

N/A

Beta

1.66

Who are the company insiders with the largest holdings of Monarch Casino & Resort?

Monarch Casino & Resort's top insider shareholders include:
  1. Bob Farahi (President)

Who are the major institutional investors of Monarch Casino & Resort?

Monarch Casino & Resort's top institutional shareholders include:
  1. BlackRock Inc. — 10.71%
  2. JPMorgan Chase & Co. — 5.12%
  3. Janus Henderson Group PLC — 4.81%
  4. Park West Asset Management LLC — 2.46%
  5. Epoch Investment Partners Inc. — 1.51%
  6. William Blair Investment Management LLC — 1.21%

Which major investors are selling Monarch Casino & Resort stock?

Within the previous quarter, MCRI stock was sold by these institutional investors:
  1. Park West Asset Management LLC
  2. Epoch Investment Partners Inc.
  3. Wedge Capital Management L L P NC
  4. Alliancebernstein L.P.
  5. Northern Trust Corp
  6. Barclays PLC
  7. Principal Financial Group Inc.
  8. Fuller & Thaler Asset Management Inc.

Which major investors are buying Monarch Casino & Resort stock?

Within the previous quarter, MCRI stock was bought by institutional investors including:
  1. BlackRock Inc.
  2. William Blair Investment Management LLC
  3. Monarch Partners Asset Management LLC
  4. Icon Advisers Inc. Co.
  5. Tompkins Financial Corp
  6. Tompkins Financial Corp
  7. Wells Fargo & Company MN
  8. Alpha Paradigm Partners LLC
The Top Stock to Watch as the Future Turns Green
California is the biggest market in the world for MJ and one company is about to open one of the largest facilities in the state. This could be the hottest MJ ground-floor play around!
Continue Reading
pixel